CPX264 Details

Departure: Charlotte/Douglas International Airport (KCLT)
Arrival: Miami International Airport (KMIA) at N/A
Route: ICONS4 NOOKS WURFL Q83 JEVED Q97 KENLL OMN HILEY7
Notes:


Current Weather Information
KCLT 191552Z VRB04KT 10SM FEW030 FEW250 31/22 A3010 RMK AO2 SLP183 T03110222
KMIA 191553Z 10011KT 10SM SCT035 BKN200 32/22 A3007 RMK AO2 SLP184 T03170222